createdAt,value
2019-02-28T00:02:28.938Z,51.43
2019-02-28T00:04:59.879Z,51.09
2019-02-28T00:07:30.649Z,48.99
2019-02-28T00:10:01.016Z,48.55
2019-02-28T00:12:31.380Z,48.99
2019-02-28T00:15:01.748Z,49.27
2019-02-28T00:17:32.154Z,48.06
2019-02-28T00:20:02.618Z,47.78
2019-02-28T00:22:33.001Z,48.11
2019-02-28T00:25:04.383Z,46.98
2019-02-28T00:27:35.526Z,47.17
2019-02-28T00:30:06.914Z,47.50
2019-02-28T00:32:37.449Z,46.52
2019-02-28T00:35:12.988Z,47.13
2019-02-28T00:37:40.407Z,48.41
2019-02-28T00:40:10.814Z,48.65
2019-02-28T00:42:41.312Z,48.48
2019-02-28T00:45:12.365Z,47.40
2019-02-28T00:47:42.905Z,47.53
2019-02-28T00:53:11.651Z,49.25
2019-02-28T00:55:42.369Z,48.07
2019-02-28T00:58:12.780Z,48.08
2019-02-28T01:00:43.334Z,47.49
2019-02-28T01:03:13.761Z,47.93
2019-02-28T01:05:44.019Z,48.02
2019-02-28T01:08:14.363Z,48.94
2019-02-28T01:10:44.887Z,48.64
2019-02-28T01:13:15.353Z,50.40
2019-02-28T01:15:45.945Z,53.63
2019-02-28T01:18:16.519Z,56.37
2019-02-28T01:20:49.994Z,50.68
2019-02-28T01:23:19.293Z,52.91
2019-02-28T01:25:50.148Z,54.72
2019-02-28T01:28:20.287Z,55.23
2019-02-28T01:30:50.650Z,56.06
2019-02-28T01:33:24.611Z,56.13
2019-02-28T01:35:53.151Z,56.09
2019-02-28T01:38:24.115Z,53.44
2019-02-28T01:40:55.413Z,52.96
2019-02-28T01:43:28.969Z,51.75
2019-02-28T01:45:57.823Z,51.08
2019-02-28T01:48:28.132Z,52.42
2019-02-28T01:51:00.826Z,52.19
2019-02-28T01:53:31.054Z,51.82
2019-02-28T01:56:02.563Z,51.82
2019-02-28T01:58:33.617Z,51.63
2019-02-28T02:01:04.379Z,51.90
2019-02-28T02:03:34.677Z,51.16
2019-02-28T02:06:05.254Z,50.66
2019-02-28T02:08:37.816Z,54.06
2019-02-28T02:11:08.050Z,52.10
2019-02-28T02:13:38.647Z,52.13
2019-02-28T02:16:09.062Z,50.00
2019-02-28T02:18:40.309Z,49.46
2019-02-28T02:21:11.876Z,49.29
2019-02-28T02:23:42.594Z,49.83
2019-02-28T02:26:13.240Z,49.85
2019-02-28T02:28:43.680Z,50.63
2019-02-28T02:31:14.017Z,50.24
2019-02-28T02:33:51.115Z,52.64
2019-02-28T02:36:17.682Z,53.45
2019-02-28T02:38:48.034Z,51.88
2019-02-28T02:41:18.484Z,50.29
2019-02-28T02:43:48.798Z,49.77
2019-02-28T02:46:21.261Z,49.50
2019-02-28T02:48:51.882Z,50.21
2019-02-28T02:51:22.499Z,51.58
2019-02-28T02:53:52.995Z,52.27
2019-02-28T02:56:23.520Z,50.65
2019-02-28T02:58:53.840Z,49.23
2019-02-28T03:01:24.540Z,49.71
2019-02-28T03:03:55.111Z,51.78
2019-02-28T03:06:25.488Z,50.47
2019-02-28T03:08:55.853Z,49.69
2019-02-28T03:11:26.252Z,49.30
2019-02-28T03:13:56.759Z,50.66
2019-02-28T03:16:27.143Z,52.75
2019-02-28T03:18:58.421Z,54.31
2019-02-28T03:21:28.890Z,54.25
2019-02-28T03:23:59.387Z,54.47
2019-02-28T03:26:29.705Z,52.43
2019-02-28T03:29:00.043Z,52.67
2019-02-28T03:31:30.479Z,51.28
2019-02-28T03:34:10.364Z,51.40
2019-02-28T03:36:33.206Z,50.68
2019-02-28T03:39:04.685Z,50.27
2019-02-28T03:41:35.244Z,49.55
2019-02-28T03:44:05.666Z,49.61
2019-02-28T03:46:36.285Z,49.68
2019-02-28T03:49:10.907Z,49.35
2019-02-28T03:51:38.513Z,49.31
2019-02-28T03:54:09.023Z,49.35
2019-02-28T03:56:39.912Z,49.65
2019-02-28T03:59:18.224Z,49.61
2019-02-28T04:01:45.658Z,49.53
2019-02-28T04:04:15.024Z,50.91
2019-02-28T04:06:45.783Z,52.86
2019-02-28T04:09:16.086Z,50.63
2019-02-28T04:11:46.575Z,50.92
2019-02-28T04:14:17.158Z,50.34
2019-02-28T04:16:52.531Z,51.15
2019-02-28T04:19:22.662Z,51.50
2019-02-28T04:21:51.314Z,51.70
2019-02-28T04:24:21.353Z,51.37
2019-02-28T04:26:51.555Z,52.75
2019-02-28T04:29:21.648Z,52.09
2019-02-28T04:31:52.497Z,51.87
2019-02-28T04:34:22.909Z,52.25
2019-02-28T04:36:53.090Z,52.35
2019-02-28T04:39:23.637Z,52.13
2019-02-28T04:41:53.781Z,51.99
2019-02-28T04:44:23.810Z,52.16
2019-02-28T04:46:53.712Z,53.32
2019-02-28T04:49:24.047Z,53.32
2019-02-28T04:51:54.590Z,53.86
2019-02-28T04:54:27.892Z,52.32
2019-02-28T04:56:57.026Z,52.12
2019-02-28T04:59:27.473Z,52.40
2019-02-28T05:01:58.030Z,52.57
2019-02-28T05:04:28.307Z,52.39
2019-02-28T05:06:58.644Z,52.85
2019-02-28T05:09:29.068Z,52.90
2019-02-28T05:12:02.386Z,52.84
2019-02-28T05:14:31.861Z,53.18
2019-02-28T05:17:02.200Z,53.12
2019-02-28T05:19:35.867Z,53.08
2019-02-28T05:22:04.632Z,52.84
2019-02-28T05:24:35.022Z,52.84
2019-02-28T05:27:05.422Z,52.76
2019-02-28T05:29:35.783Z,53.49
2019-02-28T05:32:06.087Z,54.18
2019-02-28T05:34:36.505Z,55.54
2019-02-28T05:37:12.258Z,56.22
2019-02-28T05:39:38.511Z,57.32
2019-02-28T05:42:08.958Z,57.03
2019-02-28T05:44:40.427Z,57.11
2019-02-28T05:47:11.879Z,55.19
2019-02-28T05:49:42.460Z,55.09
2019-02-28T05:52:12.779Z,54.23
2019-02-28T05:54:43.184Z,52.78
2019-02-28T05:57:13.864Z,53.19
2019-02-28T05:59:44.255Z,53.82
2019-02-28T06:02:14.805Z,53.49
2019-02-28T06:04:45.215Z,53.63
2019-02-28T06:07:15.553Z,53.58
2019-02-28T06:10:06.046Z,53.30
2019-02-28T06:12:36.549Z,51.66
2019-02-28T06:15:08.313Z,50.91
2019-02-28T06:17:38.973Z,50.25
2019-02-28T06:20:09.994Z,48.75
2019-02-28T06:22:40.308Z,47.51
2019-02-28T06:25:30.938Z,46.33
2019-02-28T06:28:01.384Z,45.81
2019-02-28T06:30:31.695Z,45.50
2019-02-28T06:33:01.967Z,44.69
2019-02-28T06:35:32.395Z,44.52
2019-02-28T06:38:03.142Z,44.73
2019-02-28T06:40:33.800Z,47.22
2019-02-28T06:43:04.106Z,45.93
2019-02-28T06:45:37.560Z,45.04
2019-02-28T06:48:06.925Z,44.36
2019-02-28T06:50:37.542Z,43.55
2019-02-28T06:53:07.852Z,43.13
2019-02-28T06:55:47.924Z,42.93
2019-02-28T06:58:18.938Z,41.91
2019-02-28T07:00:50.523Z,42.74
2019-02-28T07:03:21.347Z,42.23
2019-02-28T07:05:52.147Z,41.41
2019-02-28T07:08:24.944Z,42.06
2019-02-28T07:10:55.088Z,41.87
2019-02-28T07:13:25.704Z,40.89
2019-02-28T07:15:59.078Z,39.36
2019-02-28T07:18:28.443Z,38.28
2019-02-28T07:20:58.492Z,37.81
2019-02-28T07:23:30.015Z,37.64
2019-02-28T07:26:00.923Z,36.32
2019-02-28T07:28:36.249Z,35.85
2019-02-28T07:31:03.123Z,35.29
2019-02-28T07:33:33.738Z,35.84
2019-02-28T07:36:05.625Z,35.13
2019-02-28T07:38:36.112Z,34.82
2019-02-28T07:41:06.231Z,34.04
2019-02-28T07:43:36.306Z,33.18
2019-02-28T07:46:07.694Z,34.30
2019-02-28T07:48:38.659Z,33.44
2019-02-28T07:51:09.095Z,32.91
2019-02-28T07:53:40.985Z,31.85
2019-02-28T07:56:11.896Z,31.59
2019-02-28T07:58:42.290Z,30.04
2019-02-28T08:01:12.707Z,30.06
2019-02-28T08:03:43.703Z,30.27
2019-02-28T08:06:15.525Z,30.65
2019-02-28T08:08:45.909Z,30.71
2019-02-28T08:11:16.365Z,31.45
2019-02-28T08:13:46.777Z,31.81
2019-02-28T08:16:17.237Z,30.14
2019-02-28T08:18:51.141Z,29.08
2019-02-28T08:21:20.366Z,29.05
2019-02-28T08:23:50.773Z,29.19
2019-02-28T08:26:21.261Z,29.66
2019-02-28T08:28:51.801Z,28.72
2019-02-28T08:31:22.344Z,28.25
2019-02-28T08:33:52.671Z,27.43
2019-02-28T08:36:23.034Z,27.51
2019-02-28T08:38:53.489Z,26.47
2019-02-28T08:41:25.782Z,26.05
2019-02-28T08:43:56.378Z,27.01
2019-02-28T08:46:26.747Z,27.32
2019-02-28T08:48:57.152Z,26.62
2019-02-28T08:51:27.782Z,24.73
2019-02-28T08:53:59.749Z,25.77
2019-02-28T08:56:32.199Z,25.71
2019-02-28T08:59:11.377Z,25.47
2019-02-28T09:01:40.038Z,26.53
2019-02-28T09:04:07.199Z,24.76
2019-02-28T09:06:37.839Z,24.49
2019-02-28T09:09:11.906Z,24.11
2019-02-28T09:11:42.247Z,22.84
2019-02-28T09:14:14.737Z,22.71
2019-02-28T09:16:44.773Z,22.33
2019-02-28T09:19:15.178Z,21.93
2019-02-28T09:21:45.625Z,22.31
2019-02-28T09:24:16.240Z,22.40
2019-02-28T09:26:46.626Z,19.77
2019-02-28T09:29:18.348Z,18.70
2019-02-28T09:31:49.729Z,18.08
2019-02-28T09:34:20.312Z,18.00
2019-02-28T09:36:55.212Z,18.48
2019-02-28T09:39:22.724Z,18.88
2019-02-28T09:41:53.110Z,19.43
2019-02-28T09:44:23.408Z,19.23
2019-02-28T09:46:53.914Z,19.45
2019-02-28T09:49:24.489Z,18.62
2019-02-28T09:51:54.804Z,18.12
2019-02-28T09:54:25.551Z,18.38
2019-02-28T09:56:55.983Z,18.56
2019-02-28T09:59:26.253Z,18.00
2019-02-28T10:02:01.351Z,17.14
2019-02-28T10:04:30.534Z,17.21
2019-02-28T10:07:01.139Z,16.57
2019-02-28T10:09:31.600Z,17.12
2019-02-28T10:12:04.631Z,17.33
2019-02-28T10:14:34.660Z,17.94
2019-02-28T10:17:05.225Z,17.55
2019-02-28T10:19:55.619Z,17.25
2019-02-28T10:22:26.222Z,16.72
2019-02-28T10:24:56.690Z,17.09
2019-02-28T10:27:28.335Z,16.19
2019-02-28T10:29:58.840Z,17.57
2019-02-28T10:32:29.383Z,17.50
2019-02-28T10:35:01.309Z,17.72
2019-02-28T10:37:31.765Z,17.47
2019-02-28T10:40:02.299Z,16.13
2019-02-28T10:42:32.933Z,15.98
2019-02-28T10:45:06.371Z,16.07
2019-02-28T10:47:35.613Z,17.33
2019-02-28T10:50:07.018Z,17.70
2019-02-28T10:52:37.467Z,15.92
2019-02-28T10:55:08.748Z,14.97
2019-02-28T10:57:40.629Z,15.40
2019-02-28T11:00:33.505Z,16.14
2019-02-28T11:03:04.385Z,15.82
2019-02-28T11:05:35.600Z,15.63
2019-02-28T11:08:09.608Z,15.88
2019-02-28T11:11:00.558Z,16.20
2019-02-28T11:13:31.991Z,16.33
2019-02-28T11:16:03.719Z,14.51
2019-02-28T11:18:36.408Z,13.83
2019-02-28T11:21:06.543Z,13.91
2019-02-28T11:23:36.988Z,14.18
2019-02-28T11:26:09.549Z,14.53
2019-02-28T11:28:39.683Z,14.41
2019-02-28T11:31:11.231Z,15.40
2019-02-28T11:33:41.946Z,14.23
2019-02-28T11:36:12.485Z,13.88
2019-02-28T11:38:42.893Z,13.17
2019-02-28T11:41:15.550Z,13.38
2019-02-28T11:43:45.404Z,14.18
2019-02-28T11:46:16.643Z,14.27
2019-02-28T11:48:47.043Z,14.08
2019-02-28T11:51:18.483Z,14.28
2019-02-28T11:53:49.015Z,13.52
2019-02-28T11:56:19.463Z,13.44
2019-02-28T11:58:51.559Z,14.73
2019-02-28T12:01:22.149Z,13.17
2019-02-28T12:03:52.920Z,13.97
2019-02-28T12:06:25.715Z,13.87
2019-02-28T12:08:55.487Z,13.62
2019-02-28T12:11:26.017Z,12.98
2019-02-28T12:13:56.465Z,14.04
2019-02-28T12:16:26.754Z,14.10
2019-02-28T12:18:57.100Z,13.50
2019-02-28T12:21:27.573Z,13.15
2019-02-28T12:23:58.669Z,13.03
2019-02-28T12:26:30.043Z,13.72
2019-02-28T12:29:00.432Z,13.53
2019-02-28T12:31:32.065Z,13.42
2019-02-28T12:34:03.011Z,12.34
2019-02-28T12:36:33.743Z,12.36
2019-02-28T12:42:03.882Z,11.81
2019-02-28T12:44:34.616Z,12.88
2019-02-28T12:47:06.503Z,14.19
2019-02-28T12:49:37.468Z,14.97
2019-02-28T12:52:08.196Z,14.06
2019-02-28T12:54:38.494Z,13.44
2019-02-28T12:57:08.928Z,12.49
2019-02-28T12:59:41.890Z,13.15
2019-02-28T13:05:14.778Z,12.61
2019-02-28T13:07:41.855Z,12.68
2019-02-28T13:10:33.473Z,12.79
2019-02-28T13:13:06.967Z,12.17
2019-02-28T13:15:36.259Z,12.58
2019-02-28T13:18:09.282Z,11.86
2019-02-28T13:20:40.012Z,12.20
2019-02-28T13:23:10.232Z,13.80
2019-02-28T13:25:40.630Z,13.44
2019-02-28T13:28:11.077Z,13.79
2019-02-28T13:30:49.049Z,13.78
2019-02-28T13:33:14.933Z,12.58
2019-02-28T13:35:47.652Z,13.21
2019-02-28T13:38:19.728Z,12.62
2019-02-28T13:40:51.009Z,13.70
2019-02-28T13:43:22.772Z,13.31
2019-02-28T13:45:55.757Z,14.46
2019-02-28T13:48:29.985Z,14.74
2019-02-28T13:50:59.383Z,13.95
2019-02-28T13:53:30.749Z,13.27
2019-02-28T13:56:04.803Z,14.66
2019-02-28T13:58:34.403Z,15.28
2019-02-28T14:01:04.679Z,15.30
2019-02-28T14:03:34.870Z,15.52
2019-02-28T14:06:05.330Z,15.83
2019-02-28T14:08:35.568Z,15.58
2019-02-28T14:11:10.271Z,15.88
2019-02-28T14:13:38.078Z,15.94
2019-02-28T14:16:08.479Z,15.63
2019-02-28T14:18:38.569Z,15.63
2019-02-28T14:21:08.684Z,16.75
2019-02-28T14:23:38.884Z,16.73
2019-02-28T14:26:11.374Z,15.06
2019-02-28T14:28:41.107Z,14.47
2019-02-28T14:31:11.165Z,14.66
2019-02-28T14:33:41.355Z,15.44
2019-02-28T14:36:11.677Z,15.86
2019-02-28T14:38:41.570Z,15.56
2019-02-28T14:41:11.508Z,16.66
2019-02-28T14:43:41.725Z,16.54
2019-02-28T14:46:11.934Z,16.45
2019-02-28T14:48:41.911Z,18.18
2019-02-28T14:51:12.121Z,17.26
2019-02-28T14:53:42.151Z,17.69
2019-02-28T14:56:12.361Z,17.59
2019-02-28T14:58:42.562Z,17.22
2019-02-28T15:01:16.764Z,18.39
2019-02-28T15:03:44.765Z,18.49
2019-02-28T15:06:14.761Z,17.59
2019-02-28T15:08:47.351Z,17.55
2019-02-28T15:11:17.178Z,18.71
2019-02-28T15:13:47.783Z,18.04
2019-02-28T15:16:18.298Z,18.84
2019-02-28T15:18:51.023Z,19.19
2019-02-28T15:21:20.993Z,20.24
2019-02-28T15:23:51.457Z,20.66
2019-02-28T15:26:22.006Z,20.53
2019-02-28T15:28:52.357Z,21.20
2019-02-28T15:31:22.769Z,21.83
2019-02-28T15:33:53.299Z,22.29
2019-02-28T15:36:24.158Z,21.70
2019-02-28T15:38:55.464Z,21.18
2019-02-28T15:41:25.964Z,21.28
2019-02-28T15:43:56.484Z,22.02
2019-02-28T15:46:26.697Z,21.86
2019-02-28T15:48:56.695Z,22.52
2019-02-28T15:51:29.285Z,22.63
2019-02-28T15:53:58.628Z,23.26
2019-02-28T15:56:28.813Z,22.59
2019-02-28T15:58:58.710Z,23.30
2019-02-28T16:01:32.149Z,22.66
2019-02-28T16:04:00.659Z,23.76
2019-02-28T16:06:30.955Z,23.41
2019-02-28T16:09:00.977Z,25.12
2019-02-28T16:11:31.292Z,24.93
2019-02-28T16:14:01.587Z,24.95
2019-02-28T16:16:31.785Z,25.82
2019-02-28T16:19:01.904Z,26.38
2019-02-28T16:21:31.917Z,25.83
2019-02-28T16:24:05.096Z,26.12
2019-02-28T16:26:34.052Z,27.16
2019-02-28T16:29:04.151Z,27.34
2019-02-28T16:31:34.231Z,27.75
2019-02-28T16:34:08.141Z,26.78
2019-02-28T16:36:36.403Z,26.65
2019-02-28T16:39:07.976Z,27.10
2019-02-28T16:41:37.991Z,27.37
2019-02-28T16:44:08.193Z,27.15
2019-02-28T16:46:38.383Z,27.40
2019-02-28T16:49:10.607Z,28.58
2019-02-28T16:51:40.206Z,28.75
2019-02-28T16:54:10.114Z,29.31
2019-02-28T16:56:40.135Z,29.62
2019-02-28T16:59:10.364Z,29.72
2019-02-28T17:01:40.597Z,29.96
2019-02-28T17:04:16.734Z,30.22
2019-02-28T17:06:42.508Z,32.06
2019-02-28T17:09:30.181Z,29.88
2019-02-28T17:12:12.973Z,30.37
2019-02-28T17:14:48.074Z,30.21
2019-02-28T17:17:28.928Z,32.00
2019-02-28T17:19:59.148Z,33.76
2019-02-28T17:22:29.357Z,32.09
2019-02-28T17:24:59.263Z,31.84
2019-02-28T17:27:46.778Z,33.46
2019-02-28T17:30:36.296Z,33.21
2019-02-28T17:33:05.812Z,33.75
2019-02-28T17:35:37.622Z,33.42
2019-02-28T17:38:08.003Z,32.47
2019-02-28T17:40:38.011Z,32.38
2019-02-28T17:43:08.103Z,32.84
2019-02-28T17:45:38.851Z,32.40
2019-02-28T17:48:26.028Z,32.39
2019-02-28T17:51:06.506Z,31.64
2019-02-28T17:54:08.045Z,32.54
2019-02-28T17:57:00.071Z,33.29
2019-02-28T17:59:54.253Z,32.42
2019-02-28T18:02:42.307Z,33.16
2019-02-28T18:05:36.523Z,33.83
2019-02-28T18:08:37.585Z,34.41
2019-02-28T18:11:49.311Z,34.99
2019-02-28T18:15:09.710Z,36.11
2019-02-28T18:18:17.975Z,35.67
2019-02-28T18:21:37.451Z,35.22
2019-02-28T18:24:44.707Z,35.07
2019-02-28T18:27:58.071Z,35.50
2019-02-28T18:31:09.152Z,35.74
2019-02-28T18:33:41.776Z,36.20
2019-02-28T18:36:15.788Z,36.08
2019-02-28T18:38:46.418Z,35.54
2019-02-28T18:41:38.873Z,37.67
2019-02-28T18:44:09.577Z,38.02
2019-02-28T18:46:39.466Z,36.96
2019-02-28T18:49:09.747Z,36.51
2019-02-28T18:51:44.994Z,37.19
2019-02-28T18:54:15.304Z,37.43
2019-02-28T18:56:45.671Z,39.07
2019-02-28T18:59:15.876Z,39.66
2019-02-28T19:01:45.955Z,38.33
2019-02-28T19:04:16.362Z,38.66
2019-02-28T19:06:46.692Z,43.59
2019-02-28T19:09:22.277Z,39.12
2019-02-28T19:11:52.552Z,39.65
2019-02-28T19:14:22.989Z,41.48
2019-02-28T19:16:53.317Z,39.17
2019-02-28T19:19:23.823Z,40.59
2019-02-28T19:21:54.083Z,50.17
2019-02-28T19:24:24.585Z,48.53
2019-02-28T19:26:55.124Z,39.93
2019-02-28T19:29:25.566Z,40.51
2019-02-28T19:31:56.275Z,41.38
2019-02-28T19:34:26.585Z,41.99
2019-02-28T19:36:57.019Z,42.07
2019-02-28T19:39:27.380Z,40.76
2019-02-28T19:41:57.667Z,41.22
2019-02-28T19:44:28.523Z,41.99
2019-02-28T19:46:59.024Z,39.67
2019-02-28T19:49:29.469Z,39.40
2019-02-28T19:52:00.105Z,45.75
2019-02-28T19:54:30.500Z,39.44
2019-02-28T19:57:00.848Z,39.10
2019-02-28T19:59:31.274Z,39.71
2019-02-28T20:02:01.858Z,40.11
2019-02-28T20:04:32.121Z,39.81
2019-02-28T20:07:02.738Z,40.66
2019-02-28T20:09:33.292Z,39.53
2019-02-28T20:15:01.889Z,40.34
2019-02-28T20:17:32.389Z,39.10
2019-02-28T20:20:03.045Z,40.11
2019-02-28T20:22:33.381Z,39.27
2019-02-28T20:25:03.797Z,39.66
2019-02-28T20:30:30.155Z,40.63
2019-02-28T20:33:00.653Z,40.27
2019-02-28T20:35:31.032Z,40.23
2019-02-28T20:38:01.537Z,40.13
2019-02-28T20:40:32.162Z,40.84
2019-02-28T20:43:02.611Z,40.59
2019-02-28T20:45:32.997Z,40.88
2019-02-28T20:48:04.349Z,40.86
2019-02-28T20:50:39.960Z,41.03
2019-02-28T20:53:10.096Z,40.56
2019-02-28T20:55:40.712Z,40.64
2019-02-28T20:58:11.378Z,40.79
2019-02-28T21:00:41.805Z,41.32
2019-02-28T21:03:12.232Z,41.54
2019-02-28T21:05:42.662Z,43.22
2019-02-28T21:08:13.156Z,44.08
2019-02-28T21:10:49.328Z,42.77
2019-02-28T21:13:19.825Z,42.49
2019-02-28T21:15:50.322Z,42.75
2019-02-28T21:18:20.743Z,42.08
2019-02-28T21:20:51.144Z,42.30
2019-02-28T21:23:21.615Z,42.17
2019-02-28T21:25:52.068Z,42.10
2019-02-28T21:28:22.618Z,44.52
2019-02-28T21:30:53.191Z,45.64
2019-02-28T21:33:24.020Z,45.71
2019-02-28T21:36:14.530Z,45.45
2019-02-28T21:38:45.250Z,45.56
2019-02-28T21:41:15.653Z,44.77
2019-02-28T21:43:46.301Z,43.26
2019-02-28T21:46:17.049Z,43.35
2019-02-28T21:48:47.671Z,43.67
2019-02-28T21:51:18.447Z,43.79
2019-02-28T21:53:49.046Z,44.38
2019-02-28T21:56:19.361Z,45.17
2019-02-28T21:58:49.691Z,46.10
2019-02-28T22:01:20.121Z,45.98
2019-02-28T22:03:50.402Z,46.89
2019-02-28T22:06:20.725Z,46.56
2019-02-28T22:08:51.140Z,47.19
2019-02-28T22:11:21.796Z,46.54
2019-02-28T22:13:52.353Z,46.61
2019-02-28T22:16:22.760Z,46.00
2019-02-28T22:18:53.156Z,47.11
2019-02-28T22:21:23.471Z,46.21
2019-02-28T22:23:53.968Z,47.12
2019-02-28T22:26:24.388Z,47.07
2019-02-28T22:28:54.668Z,47.98
2019-02-28T22:31:36.193Z,46.53
2019-02-28T22:34:14.390Z,46.34
2019-02-28T22:36:45.922Z,46.03
2019-02-28T22:39:16.557Z,45.76
2019-02-28T22:41:47.089Z,45.75
2019-02-28T22:44:17.482Z,47.95
2019-02-28T22:46:47.930Z,47.21
2019-02-28T22:49:18.365Z,47.02
2019-02-28T22:51:48.885Z,45.38
2019-02-28T22:54:19.468Z,46.07
2019-02-28T22:56:49.835Z,47.78
2019-02-28T22:59:20.261Z,47.07
2019-02-28T23:01:51.573Z,45.65
2019-02-28T23:04:21.980Z,46.40
2019-02-28T23:06:52.367Z,47.49
2019-02-28T23:09:22.773Z,53.46
2019-02-28T23:11:53.184Z,46.52
2019-02-28T23:14:23.652Z,46.35
2019-02-28T23:16:54.066Z,45.59
2019-02-28T23:19:24.902Z,45.29
2019-02-28T23:21:55.316Z,44.76
2019-02-28T23:24:25.700Z,44.35
2019-02-28T23:27:14.542Z,44.93
2019-02-28T23:30:11.480Z,44.06
2019-02-28T23:32:49.694Z,44.77
2019-02-28T23:35:23.543Z,44.63
2019-02-28T23:37:54.730Z,44.18
2019-02-28T23:40:25.137Z,44.28
2019-02-28T23:42:55.553Z,44.25
2019-02-28T23:45:26.214Z,44.58
2019-02-28T23:47:56.620Z,44.22
2019-02-28T23:50:27.162Z,44.79
2019-02-28T23:52:57.686Z,45.15
2019-02-28T23:55:28.151Z,44.93
2019-02-28T23:57:58.520Z,45.63
